Time;durP1;ratioP1;P1;durP2;ratioP2;P2;SDS_P1;SDS_P2;PMS_P1;PMS_P2;Temp;Humidity;BMP_temperature;BMP_pressure;BME280_temperature;BME280_humidity;BME280_pressure;Samples;Min_cycle;Max_cycle;Signal;HPM_P1;HPM_P2
2023/04/15 00:00:37;;;;;;;5.82;3.15;;;6.10;99.90;;;;;;4772962;30;20059;-81
2023/04/15 00:03:03;;;;;;;5.47;3.17;;;6.10;99.90;;;;;;4771916;30;20077;-81
2023/04/15 00:05:30;;;;;;;9.68;3.83;;;6.10;99.90;;;;;;4771112;30;20052;-81
2023/04/15 00:07:57;;;;;;;7.45;3.08;;;6.10;99.90;;;;;;4756286;30;20058;-81
2023/04/15 00:10:23;;;;;;;8.60;3.30;;;6.10;99.90;;;;;;4755054;30;20570;-81
2023/04/15 00:12:49;;;;;;;9.35;4.70;;;6.10;99.90;;;;;;4753911;30;20048;-81
2023/04/15 00:15:15;;;;;;;11.57;3.67;;;6.00;99.90;;;;;;4756446;30;20122;-79
2023/04/15 00:17:41;;;;;;;6.35;3.42;;;6.00;99.90;;;;;;4772143;30;20067;-81
2023/04/15 00:20:06;;;;;;;7.97;3.88;;;6.10;99.90;;;;;;4756926;30;20409;-80
2023/04/15 00:22:32;;;;;;;9.68;3.75;;;6.00;99.90;;;;;;4756940;30;20032;-80
2023/04/15 00:24:57;;;;;;;7.70;3.45;;;6.00;99.90;;;;;;4752843;30;20055;-81
2023/04/15 00:27:23;;;;;;;8.38;3.80;;;6.00;99.90;;;;;;4752885;30;20051;-81
2023/04/15 00:29:49;;;;;;;6.78;3.85;;;5.90;99.90;;;;;;4757221;30;20127;-81
2023/04/15 00:32:14;;;;;;;9.00;3.40;;;5.90;99.90;;;;;;4756974;30;20104;-80
2023/04/15 00:34:40;;;;;;;7.40;3.70;;;5.90;99.90;;;;;;4772768;30;20058;-81
2023/04/15 00:37:06;;;;;;;8.43;3.60;;;5.80;99.90;;;;;;4754908;30;20104;-81
2023/04/15 00:39:31;;;;;;;5.53;3.67;;;5.70;99.90;;;;;;4770657;30;20491;-81
2023/04/15 00:41:57;;;;;;;9.20;3.78;;;5.80;99.90;;;;;;4754890;30;20054;-79
2023/04/15 00:44:22;;;;;;;8.40;3.70;;;5.80;99.90;;;;;;4755677;30;20055;-82
2023/04/15 00:46:50;;;;;;;8.85;3.90;;;5.70;99.90;;;;;;4756347;30;20515;-82
2023/04/15 00:49:19;;;;;;;5.47;3.65;;;5.70;99.90;;;;;;4755998;30;20134;-81
2023/04/15 00:51:45;;;;;;;6.45;3.88;;;5.60;99.90;;;;;;4755128;30;20051;-82
2023/04/15 00:54:11;;;;;;;7.10;4.00;;;5.60;99.90;;;;;;4772248;30;20051;-81
2023/04/15 00:56:38;;;;;;;6.72;4.05;;;5.60;99.90;;;;;;4749385;30;20056;-82
2023/04/15 00:59:05;;;;;;;7.82;4.00;;;5.50;99.90;;;;;;4756447;30;20051;-81
2023/04/15 01:01:34;;;;;;;9.35;4.25;;;5.50;99.90;;;;;;4754200;30;20789;-81
2023/04/15 01:04:00;;;;;;;8.32;4.43;;;5.50;99.90;;;;;;4770104;30;20412;-81
2023/04/15 01:06:26;;;;;;;8.68;3.55;;;5.40;99.90;;;;;;4771423;30;20047;-81
2023/04/15 01:08:56;;;;;;;5.45;4.00;;;5.40;99.90;;;;;;4770323;30;20096;-82
2023/04/15 01:11:22;;;;;;;5.32;3.45;;;5.40;99.90;;;;;;4755424;30;20044;-82
2023/04/15 01:13:49;;;;;;;9.10;4.13;;;5.50;99.90;;;;;;4771054;30;20075;-81
2023/04/15 01:16:16;;;;;;;13.50;4.68;;;5.40;99.90;;;;;;4768286;30;20448;-81
2023/04/15 01:18:42;;;;;;;10.68;4.65;;;5.40;99.90;;;;;;4770604;30;20068;-81
2023/04/15 01:21:07;;;;;;;13.20;4.80;;;5.40;99.90;;;;;;4772560;30;20040;-81
2023/04/15 01:23:37;;;;;;;10.95;4.65;;;5.40;99.90;;;;;;4755501;30;20971;-81
2023/04/15 01:26:03;;;;;;;6.50;4.70;;;5.30;99.90;;;;;;4768174;30;20052;-82
2023/04/15 01:28:30;;;;;;;5.13;4.00;;;5.30;99.90;;;;;;4752547;30;20063;-81
2023/04/15 01:31:10;;;;;;;9.32;4.38;;;5.30;99.90;;;;;;4771395;30;20154;-82
2023/04/15 01:33:37;;;;;;;6.25;3.85;;;5.20;99.90;;;;;;4755194;30;20104;-81
2023/04/15 01:36:03;;;;;;;8.60;4.10;;;5.20;99.90;;;;;;4769392;30;20135;-82
2023/04/15 01:38:30;;;;;;;10.77;4.97;;;5.20;99.90;;;;;;4771460;30;20059;-82
2023/04/15 01:40:57;;;;;;;12.65;5.22;;;5.10;99.90;;;;;;4756094;30;20056;-81
2023/04/15 01:43:22;;;;;;;11.38;4.72;;;5.10;99.90;;;;;;4769606;30;20070;-82
2023/04/15 01:45:48;;;;;;;9.85;4.38;;;5.10;99.90;;;;;;4749929;30;20404;-82
2023/04/15 01:48:13;;;;;;;11.00;6.32;;;5.00;99.90;;;;;;4754218;30;20381;-81
2023/04/15 01:50:39;;;;;;;10.85;4.50;;;5.00;99.90;;;;;;4768514;30;20535;-81
2023/04/15 01:53:04;;;;;;;9.07;4.88;;;4.90;99.90;;;;;;4771105;30;20081;-81
2023/04/15 01:55:30;;;;;;;9.43;5.22;;;4.90;99.90;;;;;;4755839;30;20087;-81
2023/04/15 01:57:56;;;;;;;9.40;5.43;;;5.00;99.90;;;;;;4755261;30;20465;-81
2023/04/15 02:00:21;;;;;;;9.68;4.70;;;4.90;99.90;;;;;;4753553;30;20098;-82
2023/04/15 02:02:48;;;;;;;6.88;4.82;;;4.90;99.90;;;;;;4756122;30;20085;-82
2023/04/15 02:05:14;;;;;;;7.45;4.93;;;4.90;99.90;;;;;;4769055;30;20089;-81
2023/04/15 02:07:41;;;;;;;9.23;4.78;;;4.90;99.90;;;;;;4754324;30;20884;-81
2023/04/15 02:10:08;;;;;;;10.63;6.18;;;4.90;99.90;;;;;;4768599;30;20047;-81
2023/04/15 02:12:33;;;;;;;9.82;5.75;;;4.90;99.90;;;;;;4755215;30;20173;-82
2023/04/15 02:14:59;;;;;;;11.40;6.57;;;4.90;99.90;;;;;;4765157;30;20138;-82
2023/04/15 02:17:24;;;;;;;13.18;6.55;;;4.90;99.90;;;;;;4770415;30;20055;-81
2023/04/15 02:19:50;;;;;;;9.93;5.93;;;4.90;99.90;;;;;;4755215;30;20047;-81
2023/04/15 02:22:17;;;;;;;11.68;6.55;;;4.90;99.90;;;;;;4769277;30;20044;-81
2023/04/15 02:24:43;;;;;;;10.85;6.60;;;4.90;99.90;;;;;;4754177;30;20450;-82
2023/04/15 02:27:09;;;;;;;14.50;8.18;;;4.90;99.90;;;;;;4749238;30;20051;-82
2023/04/15 02:29:34;;;;;;;12.30;8.27;;;5.00;99.90;;;;;;4769656;30;20575;-82
2023/04/15 02:32:00;;;;;;;13.15;6.75;;;5.00;99.90;;;;;;4768575;30;20090;-81
2023/04/15 02:34:26;;;;;;;11.55;6.78;;;4.90;99.90;;;;;;4753863;30;20113;-82
2023/04/15 02:36:56;;;;;;;11.70;6.90;;;5.00;99.90;;;;;;4751274;30;20113;-81
2023/04/15 02:39:21;;;;;;;9.43;6.70;;;5.00;99.90;;;;;;4755214;30;20079;-81
2023/04/15 02:41:50;;;;;;;13.60;7.30;;;4.90;99.90;;;;;;4757355;30;20047;-82
2023/04/15 02:44:19;;;;;;;10.82;6.90;;;5.00;99.90;;;;;;4769266;30;20047;-82
2023/04/15 02:46:49;;;;;;;12.02;7.82;;;5.00;99.90;;;;;;4774664;30;20443;-82
2023/04/15 02:49:15;;;;;;;9.20;7.15;;;4.90;99.90;;;;;;4756166;30;20135;-82
2023/04/15 02:51:41;;;;;;;10.48;6.95;;;4.90;99.90;;;;;;4771840;30;20131;-82
2023/04/15 02:54:07;;;;;;;11.10;6.50;;;4.90;99.90;;;;;;4770626;30;20594;-82
2023/04/15 02:56:33;;;;;;;11.15;7.60;;;4.90;99.90;;;;;;4774322;30;20082;-81
2023/04/15 02:58:58;;;;;;;14.40;8.00;;;4.90;99.90;;;;;;4772473;30;20047;-82
2023/04/15 03:01:25;;;;;;;9.02;7.18;;;4.90;99.90;;;;;;4774077;30;20051;-82
2023/04/15 03:03:50;;;;;;;11.10;7.60;;;4.90;99.90;;;;;;4770616;30;20083;-81
2023/04/15 03:06:16;;;;;;;11.20;7.82;;;4.80;99.90;;;;;;4771601;30;20078;-82
2023/04/15 03:08:42;;;;;;;9.60;7.55;;;4.80;99.90;;;;;;4772138;30;20048;-82
2023/04/15 03:11:07;;;;;;;11.43;7.55;;;4.80;99.90;;;;;;4756358;30;20035;-82
2023/04/15 03:13:33;;;;;;;10.60;8.18;;;4.80;99.90;;;;;;4754971;30;20051;-82
2023/04/15 03:15:58;;;;;;;11.98;8.70;;;4.70;99.90;;;;;;4749990;30;20090;-82
2023/04/15 03:18:24;;;;;;;14.05;9.88;;;4.70;99.90;;;;;;4757630;30;20054;-82
2023/04/15 03:20:50;;;;;;;12.70;8.95;;;4.70;99.90;;;;;;4768800;30;20055;-82
2023/04/15 03:23:15;;;;;;;12.30;9.05;;;4.70;99.90;;;;;;4755568;30;20477;-82
2023/04/15 03:25:41;;;;;;;12.02;8.82;;;4.60;99.90;;;;;;4755976;30;20047;-82
2023/04/15 03:28:07;;;;;;;12.88;9.55;;;4.70;99.90;;;;;;4774567;30;20163;-81
2023/04/15 03:30:32;;;;;;;14.75;8.80;;;4.70;99.90;;;;;;4753513;30;20069;-81
2023/04/15 03:32:58;;;;;;;14.18;8.77;;;4.60;99.90;;;;;;4753045;30;20062;-82
2023/04/15 03:35:24;;;;;;;13.57;9.13;;;4.60;99.90;;;;;;4742714;30;20053;-82
2023/04/15 03:37:49;;;;;;;12.75;8.85;;;4.50;99.90;;;;;;4757395;30;20070;-81
2023/04/15 03:40:15;;;;;;;14.63;9.57;;;4.60;99.90;;;;;;4771805;30;20373;-82
2023/04/15 03:42:40;;;;;;;10.35;8.73;;;4.50;99.90;;;;;;4772890;30;20437;-82
2023/04/15 03:45:06;;;;;;;12.15;9.52;;;4.50;99.90;;;;;;4772741;30;20510;-82
2023/04/15 03:47:32;;;;;;;14.80;10.15;;;4.50;99.90;;;;;;4756911;30;20063;-82
2023/04/15 03:49:58;;;;;;;12.98;10.23;;;4.50;99.90;;;;;;4770850;30;20056;-82
2023/04/15 03:52:23;;;;;;;10.65;9.55;;;4.50;99.90;;;;;;4770977;30;21834;-82
2023/04/15 03:54:49;;;;;;;10.25;9.10;;;4.50;99.90;;;;;;4752761;30;20115;-81
2023/04/15 03:57:14;;;;;;;12.48;9.10;;;4.50;99.90;;;;;;4755732;30;20048;-82
2023/04/15 03:59:40;;;;;;;10.82;9.45;;;4.40;99.90;;;;;;4771517;30;20507;-81
2023/04/15 04:02:05;;;;;;;11.32;9.52;;;4.40;99.90;;;;;;4771397;30;20581;-81
2023/04/15 04:04:31;;;;;;;11.23;9.23;;;4.50;99.90;;;;;;4770060;30;20460;-81
2023/04/15 04:06:56;;;;;;;9.60;8.68;;;4.50;99.90;;;;;;4770163;30;20044;-81
2023/04/15 04:09:22;;;;;;;10.20;9.07;;;4.40;99.90;;;;;;4773658;30;20092;-81
2023/04/15 04:11:47;;;;;;;10.57;9.35;;;4.50;99.90;;;;;;4772399;30;20403;-81
2023/04/15 04:14:13;;;;;;;9.45;8.45;;;4.50;99.90;;;;;;4771720;30;20047;-81
2023/04/15 04:16:38;;;;;;;11.32;8.60;;;4.40;99.90;;;;;;4753970;30;20483;-81
2023/04/15 04:19:04;;;;;;;11.38;7.82;;;4.50;99.90;;;;;;4767548;30;20048;-82
2023/04/15 04:21:30;;;;;;;10.52;8.57;;;4.50;99.90;;;;;;4752244;30;20056;-81
2023/04/15 04:23:55;;;;;;;10.95;9.05;;;4.50;99.90;;;;;;4769867;30;20056;-81
2023/04/15 04:26:21;;;;;;;9.98;8.98;;;4.50;99.90;;;;;;4753393;30;20460;-81
2023/04/15 04:28:47;;;;;;;10.27;9.18;;;4.50;99.90;;;;;;4757090;30;20044;-81
2023/04/15 04:31:12;;;;;;;11.48;9.15;;;4.50;99.90;;;;;;4773038;30;20051;-81
2023/04/15 04:33:38;;;;;;;12.65;9.40;;;4.50;99.90;;;;;;4756924;30;20082;-81
2023/04/15 04:36:04;;;;;;;12.70;9.70;;;4.50;99.90;;;;;;4772282;30;20097;-81
2023/04/15 04:38:30;;;;;;;13.38;9.85;;;4.50;99.90;;;;;;4753587;30;20044;-81
2023/04/15 04:40:55;;;;;;;11.70;9.68;;;4.50;99.90;;;;;;4755662;30;20052;-81
2023/04/15 04:43:21;;;;;;;11.90;10.27;;;4.50;99.90;;;;;;4758425;30;20131;-81
2023/04/15 04:45:47;;;;;;;12.90;10.73;;;4.50;99.90;;;;;;4769622;30;20063;-81
2023/04/15 04:48:12;;;;;;;13.43;10.05;;;4.50;99.90;;;;;;4770025;30;20039;-81
2023/04/15 04:50:38;;;;;;;13.68;9.77;;;4.50;99.90;;;;;;4755554;30;20146;-82
2023/04/15 04:53:03;;;;;;;13.55;10.60;;;4.50;99.90;;;;;;4758563;30;20052;-81
2023/04/15 04:55:30;;;;;;;12.82;10.43;;;4.60;99.90;;;;;;4757135;30;20059;-81
2023/04/15 04:57:56;;;;;;;13.50;10.45;;;4.50;99.90;;;;;;4772334;30;20052;-82
2023/04/15 05:00:22;;;;;;;14.45;10.95;;;4.60;99.90;;;;;;4772858;30;20050;-81
2023/04/15 05:02:47;;;;;;;14.60;11.65;;;4.60;99.90;;;;;;4750015;30;20169;-81
2023/04/15 05:05:13;;;;;;;13.70;11.40;;;4.60;99.90;;;;;;4756854;30;20048;-81
2023/04/15 05:07:38;;;;;;;16.15;12.82;;;4.60;99.90;;;;;;4755084;30;20129;-81
2023/04/15 05:10:05;;;;;;;14.73;12.90;;;4.70;99.90;;;;;;4770586;30;20407;-81
2023/04/15 05:12:31;;;;;;;15.43;12.25;;;4.70;99.90;;;;;;4772176;30;20058;-81
2023/04/15 05:14:57;;;;;;;14.23;11.52;;;4.80;99.90;;;;;;4771149;30;20063;-81
2023/04/15 05:17:22;;;;;;;12.55;11.23;;;5.00;99.90;;;;;;4771726;30;20048;-81
2023/04/15 05:19:48;;;;;;;13.52;11.80;;;5.20;99.90;;;;;;4755340;30;20389;-80
2023/04/15 05:22:14;;;;;;;15.90;12.77;;;5.40;99.90;;;;;;4770570;30;20144;-81
2023/04/15 05:24:40;;;;;;;15.15;12.23;;;5.70;99.90;;;;;;4771156;30;20126;-81
2023/04/15 05:27:07;;;;;;;11.10;10.00;;;6.00;99.90;;;;;;4773171;30;20075;-81
2023/04/15 05:29:33;;;;;;;12.60;11.35;;;6.40;99.90;;;;;;4769777;30;20051;-81
2023/04/15 05:31:59;;;;;;;13.02;10.75;;;6.80;99.90;;;;;;4769392;30;20062;-81
2023/04/15 05:34:24;;;;;;;14.02;10.93;;;7.00;99.90;;;;;;4773227;30;20158;-81
2023/04/15 05:36:51;;;;;;;11.13;9.50;;;7.20;99.90;;;;;;4757308;30;20403;-81
2023/04/15 05:39:17;;;;;;;11.30;10.10;;;7.70;99.90;;;;;;4772321;30;20044;-81
2023/04/15 05:41:42;;;;;;;11.02;9.82;;;8.20;99.90;;;;;;4767116;30;20051;-81
2023/04/15 05:44:08;;;;;;;12.07;8.82;;;8.70;99.90;;;;;;4770591;30;20104;-81
2023/04/15 05:46:33;;;;;;;9.48;8.57;;;9.40;99.90;;;;;;4748983;30;20055;-81
2023/04/15 05:48:59;;;;;;;8.95;8.15;;;10.00;99.90;;;;;;4772483;30;20048;-81
2023/04/15 05:51:25;;;;;;;8.70;7.82;;;10.30;99.90;;;;;;4772176;30;20043;-81
2023/04/15 05:53:50;;;;;;;9.82;8.85;;;10.20;99.90;;;;;;4754633;30;20415;-81
2023/04/15 05:56:16;;;;;;;9.40;7.38;;;10.10;99.90;;;;;;4770528;30;20107;-81
2023/04/15 05:58:42;;;;;;;8.85;7.07;;;10.30;99.90;;;;;;4768058;30;20058;-81
2023/04/15 06:01:07;;;;;;;7.97;7.28;;;10.50;99.90;;;;;;4765443;30;20043;-83
2023/04/15 06:03:33;;;;;;;10.52;8.32;;;10.40;99.90;;;;;;4754926;30;20292;-83
2023/04/15 06:05:59;;;;;;;10.57;8.23;;;10.10;99.90;;;;;;4767634;30;21044;-82
2023/04/15 06:08:25;;;;;;;9.10;8.18;;;9.80;99.90;;;;;;4751488;30;20476;-82
2023/04/15 06:10:50;;;;;;;9.60;8.35;;;9.50;99.90;;;;;;4750306;30;20083;-82
2023/04/15 06:13:16;;;;;;;10.35;8.43;;;9.30;99.90;;;;;;4766172;30;20404;-82
2023/04/15 06:15:42;;;;;;;9.05;8.15;;;9.00;99.90;;;;;;4752397;30;20083;-80
2023/04/15 06:18:07;;;;;;;9.10;8.20;;;8.90;99.90;;;;;;4752217;30;20183;-82
2023/04/15 06:20:33;;;;;;;10.57;8.45;;;8.80;99.90;;;;;;4750064;30;20043;-83
2023/04/15 06:22:58;;;;;;;8.88;7.97;;;8.80;99.90;;;;;;4749094;30;20051;-83
2023/04/15 06:25:24;;;;;;;9.32;8.23;;;8.90;99.90;;;;;;4749964;30;20055;-83
2023/04/15 06:27:50;;;;;;;10.50;9.50;;;9.10;99.90;;;;;;4747549;30;20047;-83
2023/04/15 06:30:15;;;;;;;9.95;8.93;;;9.20;99.90;;;;;;4750576;30;20059;-82
2023/04/15 06:32:41;;;;;;;10.10;8.27;;;9.30;99.90;;;;;;4751561;30;20519;-83
2023/04/15 06:35:07;;;;;;;9.27;8.38;;;9.50;99.90;;;;;;4754443;30;20505;-81
2023/04/15 06:37:33;;;;;;;10.25;8.23;;;9.50;99.90;;;;;;4756160;30;20138;-83
2023/04/15 06:39:58;;;;;;;9.32;8.43;;;9.70;99.90;;;;;;4768899;30;20634;-83
2023/04/15 06:42:24;;;;;;;10.45;8.63;;;9.90;99.90;;;;;;4754219;30;20047;-83
2023/04/15 06:44:50;;;;;;;8.45;7.65;;;10.20;99.90;;;;;;4750131;30;20090;-82
2023/04/15 06:47:15;;;;;;;9.02;7.95;;;10.30;99.90;;;;;;4754135;30;20437;-80
2023/04/15 06:49:42;;;;;;;8.45;7.55;;;10.50;99.90;;;;;;4758800;30;20048;-81
2023/04/15 06:52:07;;;;;;;10.60;8.48;;;10.40;99.90;;;;;;4758391;30;20437;-80
2023/04/15 06:54:33;;;;;;;9.65;8.73;;;10.30;99.90;;;;;;4774520;30;20111;-81
2023/04/15 06:56:58;;;;;;;9.23;8.30;;;10.00;99.90;;;;;;4757422;30;20052;-81
2023/04/15 06:59:24;;;;;;;9.75;8.80;;;9.90;99.90;;;;;;4756986;30;20067;-82
2023/04/15 07:01:50;;;;;;;9.73;8.73;;;9.70;99.90;;;;;;4774121;30;20069;-81
2023/04/15 07:04:15;;;;;;;11.02;9.93;;;9.70;99.90;;;;;;4772793;30;20356;-80
2023/04/15 07:06:41;;;;;;;11.63;10.38;;;9.60;99.90;;;;;;4758901;30;20150;-81
2023/04/15 07:09:07;;;;;;;9.10;8.20;;;9.50;99.90;;;;;;4758607;30;20090;-81
2023/04/15 07:11:33;;;;;;;11.10;9.13;;;9.50;99.90;;;;;;4758934;30;20071;-82
2023/04/15 07:13:58;;;;;;;11.50;10.10;;;9.40;99.90;;;;;;4755432;30;20059;-81
2023/04/15 07:16:24;;;;;;;10.35;8.43;;;9.40;99.90;;;;;;4769025;30;20071;-81
2023/04/15 07:18:49;;;;;;;10.75;8.90;;;9.50;99.90;;;;;;4771531;30;20147;-79
2023/04/15 07:21:15;;;;;;;9.38;8.07;;;9.50;99.90;;;;;;4775513;30;20055;-81
2023/04/15 07:23:41;;;;;;;10.50;7.85;;;9.50;99.90;;;;;;4757555;30;20142;-81
2023/04/15 07:26:08;;;;;;;8.55;7.68;;;9.50;99.90;;;;;;4774236;30;20085;-81
2023/04/15 07:28:33;;;;;;;10.50;8.00;;;9.50;99.90;;;;;;4774533;30;20050;-81
2023/04/15 07:30:59;;;;;;;9.52;7.93;;;9.60;99.90;;;;;;4771176;30;20051;-82
2023/04/15 07:33:25;;;;;;;10.55;8.45;;;9.60;99.90;;;;;;4755569;30;20139;-82
2023/04/15 07:35:50;;;;;;;9.02;8.13;;;9.60;99.90;;;;;;4773863;30;20055;-81
2023/04/15 07:38:16;;;;;;;8.65;7.75;;;9.60;99.90;;;;;;4754259;30;20059;-81
2023/04/15 07:40:42;;;;;;;11.43;8.52;;;9.60;99.90;;;;;;4758006;30;20523;-82
2023/04/15 07:43:08;;;;;;;9.23;7.80;;;9.60;99.90;;;;;;4753798;30;20403;-81
2023/04/15 07:45:34;;;;;;;8.57;7.72;;;9.60;99.90;;;;;;4758149;30;20051;-80
2023/04/15 07:48:01;;;;;;;9.40;7.63;;;9.60;99.90;;;;;;4754304;30;20554;-81
2023/04/15 07:50:27;;;;;;;10.10;7.75;;;9.70;99.90;;;;;;4771112;30;20093;-81
2023/04/15 07:52:53;;;;;;;10.13;7.53;;;9.80;99.90;;;;;;4757574;30;20503;-81
2023/04/15 07:55:20;;;;;;;8.80;7.03;;;9.80;99.90;;;;;;4773681;30;20059;-82
2023/04/15 07:57:46;;;;;;;8.35;5.93;;;9.90;99.90;;;;;;4771963;30;20047;-81
2023/04/15 08:00:12;;;;;;;6.57;5.68;;;9.80;99.90;;;;;;4772865;30;20089;-81
2023/04/15 08:02:38;;;;;;;6.65;5.38;;;9.90;99.90;;;;;;4759453;30;20063;-81
2023/04/15 08:05:06;;;;;;;12.02;5.32;;;9.80;99.90;;;;;;4775002;30;20047;-80
2023/04/15 08:07:31;;;;;;;6.30;4.70;;;9.80;99.90;;;;;;4755808;30;20074;-82
2023/04/15 08:09:57;;;;;;;4.93;4.47;;;9.70;99.90;;;;;;4758455;30;20047;-81
2023/04/15 08:12:23;;;;;;;5.93;5.20;;;9.80;99.90;;;;;;4775201;30;20051;-81
2023/04/15 08:14:50;;;;;;;6.68;5.05;;;9.70;99.90;;;;;;4773125;30;20066;-81
2023/04/15 08:17:15;;;;;;;6.07;5.32;;;9.80;99.90;;;;;;4771799;30;20065;-82
2023/04/15 08:19:41;;;;;;;5.40;4.80;;;9.80;99.90;;;;;;4755115;30;20060;-81
2023/04/15 08:22:07;;;;;;;6.55;4.72;;;9.80;99.90;;;;;;4774223;30;20088;-81
2023/04/15 08:24:33;;;;;;;7.65;4.93;;;9.90;99.90;;;;;;4772218;30;20677;-81
2023/04/15 08:26:58;;;;;;;3.95;3.25;;;9.90;99.90;;;;;;4759109;30;20047;-80
2023/04/15 08:29:24;;;;;;;5.47;3.72;;;9.90;99.90;;;;;;4771337;30;20139;-81
2023/04/15 08:31:50;;;;;;;5.45;3.63;;;10.00;99.90;;;;;;4774005;30;20132;-81
2023/04/15 08:34:15;;;;;;;4.70;2.92;;;10.20;99.90;;;;;;4772868;30;20071;-81
2023/04/15 08:36:42;;;;;;;5.15;3.63;;;10.40;99.90;;;;;;4772171;30;20051;-80
2023/04/15 08:39:07;;;;;;;8.77;4.13;;;10.50;99.90;;;;;;4757624;30;20076;-80
2023/04/15 08:41:46;;;;;;;3.35;2.65;;;10.50;99.90;;;;;;4772938;30;20044;-81
2023/04/15 08:44:13;;;;;;;6.05;3.72;;;10.40;99.90;;;;;;4756975;30;20187;-81
2023/04/15 08:46:41;;;;;;;5.82;4.70;;;10.30;99.90;;;;;;4757681;30;20052;-81
2023/04/15 08:49:09;;;;;;;8.75;4.65;;;10.30;99.90;;;;;;4767161;30;20043;-83
2023/04/15 08:51:35;;;;;;;6.22;4.30;;;10.20;99.90;;;;;;4749295;30;20063;-81
2023/04/15 08:54:02;;;;;;;8.23;4.80;;;10.10;99.90;;;;;;4751809;30;20047;-80
2023/04/15 08:56:31;;;;;;;7.45;4.93;;;10.10;99.90;;;;;;4750457;30;20048;-81
2023/04/15 08:59:04;;;;;;;7.57;4.50;;;10.00;99.90;;;;;;5086926;27;20413;-81
2023/04/15 09:01:31;;;;;;;9.38;4.10;;;9.90;99.90;;;;;;5086205;28;20136;-81
2023/04/15 09:03:58;;;;;;;5.47;3.80;;;9.90;99.90;;;;;;5066428;28;20063;-82
2023/04/15 09:06:24;;;;;;;6.32;4.03;;;9.90;99.90;;;;;;5060039;28;20078;-80
2023/04/15 09:08:50;;;;;;;5.28;3.40;;;9.90;99.90;;;;;;5059012;28;20483;-80
2023/04/15 09:11:17;;;;;;;5.28;3.78;;;9.70;99.90;;;;;;5059186;28;20044;-81
2023/04/15 09:13:43;;;;;;;7.53;3.97;;;9.80;99.90;;;;;;5057908;28;20499;-80
2023/04/15 09:16:09;;;;;;;4.82;3.05;;;9.80;99.90;;;;;;5059575;28;20041;-81
2023/04/15 09:18:37;;;;;;;8.82;3.42;;;9.70;99.90;;;;;;5060777;28;20184;-81
2023/04/15 09:21:11;;;;;;;5.25;2.85;;;9.60;99.90;;;;;;5093320;28;20052;-81
2023/04/15 09:23:39;;;;;;;4.03;2.85;;;9.60;99.90;;;;;;5065608;28;20056;-81
2023/04/15 09:26:05;;;;;;;5.15;2.28;;;9.50;99.90;;;;;;5058699;28;20036;-81
2023/04/15 09:28:31;;;;;;;3.05;2.10;;;9.50;99.90;;;;;;5059062;28;20041;-82
2023/04/15 09:30:58;;;;;;;4.40;2.55;;;9.50;99.90;;;;;;5088950;28;20059;-81
2023/04/15 09:33:26;;;;;;;3.55;2.10;;;9.50;99.90;;;;;;5053914;28;20063;-81
2023/04/15 09:36:00;;;;;;;3.92;1.95;;;9.50;99.90;;;;;;5058742;28;20036;-81
2023/04/15 09:38:26;;;;;;;4.03;2.05;;;9.40;99.90;;;;;;5061737;28;20057;-81
2023/04/15 09:40:52;;;;;;;3.42;1.88;;;9.40;99.90;;;;;;5061521;28;20041;-81
2023/04/15 09:43:17;;;;;;;7.35;1.80;;;9.40;99.90;;;;;;5060269;28;20045;-81
2023/04/15 09:45:53;;;;;;;7.75;2.50;;;9.50;99.90;;;;;;5060544;28;20051;-81
2023/04/15 09:48:25;;;;;;;4.45;1.77;;;9.60;99.90;;;;;;5054666;28;20045;-81
2023/04/15 09:50:56;;;;;;;7.25;2.58;;;9.70;99.90;;;;;;5058008;28;20398;-81
2023/04/15 09:53:23;;;;;;;2.40;1.33;;;9.60;99.90;;;;;;5091759;28;20060;-81
2023/04/15 09:55:50;;;;;;;4.78;1.70;;;9.60;99.90;;;;;;5090423;28;20502;-80
2023/04/15 09:58:33;;;;;;;4.28;1.92;;;9.60;99.90;;;;;;5073447;28;20053;-81
2023/04/15 10:01:01;;;;;;;3.30;1.35;;;9.60;99.90;;;;;;5090077;28;20576;-80
2023/04/15 10:03:34;;;;;;;6.70;1.88;;;9.60;99.90;;;;;;5061528;28;20104;-81
2023/04/15 10:06:00;;;;;;;10.73;2.05;;;9.60;99.90;;;;;;5057772;28;20052;-81
2023/04/15 10:08:32;;;;;;;3.22;1.48;;;9.70;99.90;;;;;;5090678;28;20068;-82
2023/04/15 10:10:59;;;;;;;1.83;1.00;;;9.70;99.90;;;;;;5044747;28;20518;-82
2023/04/15 10:13:27;;;;;;;1.70;1.00;;;9.70;99.90;;;;;;5046063;28;20045;-82
2023/04/15 10:16:15;;;;;;;4.53;1.25;;;9.70;99.90;;;;;;5081604;28;20061;-83
2023/04/15 10:18:45;;;;;;;2.38;0.80;;;9.80;99.90;;;;;;5045186;28;20033;-82
2023/04/15 10:21:17;;;;;;;1.38;0.77;;;9.90;99.90;;;;;;5057675;28;20118;-82
2023/04/15 10:23:46;;;;;;;2.35;0.98;;;10.10;99.90;;;;;;5076995;28;20068;-81
2023/04/15 10:26:14;;;;;;;3.50;1.35;;;10.20;99.90;;;;;;5044886;28;20050;-82
2023/04/15 10:28:40;;;;;;;5.05;1.25;;;10.20;99.90;;;;;;5035067;28;20037;-84
2023/04/15 10:31:06;;;;;;;3.97;1.30;;;10.30;99.90;;;;;;5049164;28;20064;-81
2023/04/15 10:33:33;;;;;;;4.30;1.33;;;10.40;99.90;;;;;;5042883;28;20120;-84
2023/04/15 10:36:00;;;;;;;4.18;1.58;;;10.40;99.90;;;;;;5042930;28;20037;-82
2023/04/15 10:38:40;;;;;;;4.10;1.23;;;10.20;99.90;;;;;;5030998;28;20051;-82
2023/04/15 10:41:20;;;;;;;3.40;1.20;;;10.40;99.90;;;;;;5045974;28;20045;-81
2023/04/15 10:43:54;;;;;;;6.10;1.10;;;10.40;99.90;;;;;;5081866;28;20115;-83
2023/04/15 10:46:41;;;;;;;3.17;0.95;;;10.40;99.90;;;;;;5062348;28;20037;-83
2023/04/15 10:49:23;;;;;;;5.82;0.93;;;10.40;99.90;;;;;;5039149;28;20040;-83
2023/04/15 10:51:56;;;;;;;2.47;0.82;;;10.50;99.90;;;;;;5043397;28;20059;-82
2023/04/15 10:54:25;;;;;;;3.65;0.90;;;10.40;99.90;;;;;;5080731;28;20068;-83
2023/04/15 10:57:23;;;;;;;3.15;0.80;;;10.40;99.90;;;;;;5039962;28;20034;-82
2023/04/15 10:59:58;;;;;;;1.95;1.20;;;10.50;99.90;;;;;;5038720;28;20052;-82
2023/04/15 11:03:06;;;;;;;2.22;0.75;;;10.50;99.90;;;;;;5042471;28;20037;-82
2023/04/15 11:05:38;;;;;;;2.75;0.95;;;10.50;99.90;;;;;;5022497;28;20053;-83
2023/04/15 11:08:04;;;;;;;1.70;1.02;;;10.30;99.90;;;;;;5040846;28;20049;-82
2023/04/15 11:10:29;;;;;;;2.95;0.73;;;10.30;99.90;;;;;;5045316;28;20056;-83
2023/04/15 11:13:03;;;;;;;3.50;0.70;;;10.30;99.90;;;;;;5044200;28;20108;-82
2023/04/15 11:15:45;;;;;;;5.22;1.83;;;10.30;99.90;;;;;;5076658;28;20457;-83
2023/04/15 11:18:55;;;;;;;3.65;0.98;;;10.30;99.90;;;;;;5076539;28;20049;-84
2023/04/15 11:21:25;;;;;;;2.42;0.70;;;10.20;99.90;;;;;;5070703;28;20048;-83
2023/04/15 11:23:50;;;;;;;2.42;0.88;;;10.10;99.90;;;;;;5037281;28;20087;-83
2023/04/15 11:26:16;;;;;;;2.05;0.80;;;10.10;99.90;;;;;;5040129;28;20044;-82
2023/04/15 11:28:43;;;;;;;1.42;0.63;;;10.10;99.90;;;;;;5039547;28;20045;-83
2023/04/15 11:31:11;;;;;;;3.78;0.93;;;10.10;99.90;;;;;;5072754;28;20079;-82
2023/04/15 11:33:44;;;;;;;6.55;1.58;;;10.20;99.90;;;;;;5044377;28;20045;-82
2023/04/15 11:36:10;;;;;;;3.95;1.42;;;10.10;99.90;;;;;;5040427;28;20049;-83
2023/04/15 11:38:36;;;;;;;4.90;0.80;;;10.10;99.90;;;;;;5041131;28;20044;-82
2023/04/15 11:41:02;;;;;;;6.05;1.15;;;10.10;99.90;;;;;;5072661;28;20484;-83
2023/04/15 11:43:31;;;;;;;5.40;1.23;;;10.00;99.90;;;;;;5039531;28;20033;-83
2023/04/15 11:45:58;;;;;;;7.45;1.15;;;10.00;99.90;;;;;;5046433;28;20446;-83
2023/04/15 11:48:29;;;;;;;6.10;1.25;;;10.00;99.90;;;;;;5047674;28;20045;-80
2023/04/15 11:51:00;;;;;;;6.57;2.00;;;10.00;99.90;;;;;;5043873;28;20652;-83
2023/04/15 11:53:37;;;;;;;9.25;1.85;;;10.10;99.90;;;;;;5060459;28;20092;-82
2023/04/15 11:56:03;;;;;;;5.25;1.42;;;10.10;99.90;;;;;;5045522;28;20057;-81
2023/04/15 11:58:29;;;;;;;6.90;1.40;;;10.10;99.90;;;;;;5050375;28;20090;-81
2023/04/15 12:00:58;;;;;;;4.18;1.33;;;10.00;99.90;;;;;;5046728;28;20507;-83
2023/04/15 12:03:35;;;;;;;4.75;1.60;;;10.00;99.90;;;;;;5040966;28;20084;-81
2023/04/15 12:06:15;;;;;;;4.10;1.10;;;10.00;99.90;;;;;;5062029;28;20045;-83
2023/04/15 12:08:51;;;;;;;8.77;1.20;;;10.10;99.90;;;;;;5079896;28;20064;-80
2023/04/15 12:11:26;;;;;;;5.90;0.85;;;10.10;99.90;;;;;;5050221;28;20060;-81
2023/04/15 12:13:55;;;;;;;5.72;1.40;;;10.20;99.90;;;;;;5047769;28;20037;-82
2023/04/15 12:16:22;;;;;;;3.15;1.00;;;10.40;99.90;;;;;;5045521;28;20124;-83
2023/04/15 12:18:54;;;;;;;4.30;0.85;;;10.50;99.90;;;;;;5036442;28;20090;-83
2023/04/15 12:21:21;;;;;;;3.13;0.60;;;10.50;99.90;;;;;;5036715;28;20040;-84
2023/04/15 12:23:55;;;;;;;5.28;0.98;;;10.50;99.90;;;;;;5037918;28;20408;-82
2023/04/15 12:26:37;;;;;;;5.45;1.13;;;10.50;99.90;;;;;;5072662;28;20130;-82
2023/04/15 12:29:07;;;;;;;5.32;0.93;;;10.40;99.90;;;;;;5036296;28;20407;-83
2023/04/15 12:31:35;;;;;;;9.30;1.35;;;10.30;99.90;;;;;;5076768;28;20048;-82
2023/04/15 12:34:02;;;;;;;5.60;1.13;;;10.40;99.90;;;;;;5038743;28;20045;-82
2023/04/15 12:36:29;;;;;;;8.00;1.00;;;10.30;99.90;;;;;;5074870;28;20041;-83
2023/04/15 12:38:54;;;;;;;5.70;1.40;;;10.20;99.90;;;;;;5043033;28;20056;-82
2023/04/15 12:41:21;;;;;;;7.88;1.52;;;10.20;99.90;;;;;;5041046;28;20037;-84
2023/04/15 12:43:46;;;;;;;8.00;2.05;;;10.20;99.90;;;;;;5038633;28;20053;-80
2023/04/15 12:46:12;;;;;;;9.48;1.08;;;10.10;99.90;;;;;;5046311;28;20044;-82
2023/04/15 12:48:39;;;;;;;5.57;1.30;;;10.10;99.90;;;;;;5050024;28;20036;-83
2023/04/15 12:51:05;;;;;;;7.50;1.23;;;10.10;99.90;;;;;;5045172;28;20052;-81